sensor_id;sensor_type;location;lat;lon;timestamp;temperature;humidity
23271;DHT22;11804;51.118;17.058;2023-07-13T00:02:09;22.50;99.90
23271;DHT22;11804;51.118;17.058;2023-07-13T00:04:37;22.50;99.90
23271;DHT22;11804;51.118;17.058;2023-07-13T00:07:04;22.60;99.90
23271;DHT22;11804;51.118;17.058;2023-07-13T00:09:32;22.50;99.90
23271;DHT22;11804;51.118;17.058;2023-07-13T00:12:00;22.40;99.90
23271;DHT22;11804;51.118;17.058;2023-07-13T00:14:29;22.10;99.90
23271;DHT22;11804;51.118;17.058;2023-07-13T00:16:57;21.90;99.90
23271;DHT22;11804;51.118;17.058;2023-07-13T00:19:26;21.90;99.90
23271;DHT22;11804;51.118;17.058;2023-07-13T00:21:54;22.00;99.90
23271;DHT22;11804;51.118;17.058;2023-07-13T00:24:22;22.10;99.90
23271;DHT22;11804;51.118;17.058;2023-07-13T00:26:50;22.10;99.90
23271;DHT22;11804;51.118;17.058;2023-07-13T00:29:18;21.90;99.90
23271;DHT22;11804;51.118;17.058;2023-07-13T00:31:47;21.80;99.90
23271;DHT22;11804;51.118;17.058;2023-07-13T00:34:15;22.00;99.90
23271;DHT22;11804;51.118;17.058;2023-07-13T00:36:42;22.10;99.90
23271;DHT22;11804;51.118;17.058;2023-07-13T00:39:10;21.80;99.90
23271;DHT22;11804;51.118;17.058;2023-07-13T00:41:37;21.40;99.90
23271;DHT22;11804;51.118;17.058;2023-07-13T00:44:07;21.50;99.90
23271;DHT22;11804;51.118;17.058;2023-07-13T00:46:34;21.50;99.90
23271;DHT22;11804;51.118;17.058;2023-07-13T00:49:04;21.50;99.90
23271;DHT22;11804;51.118;17.058;2023-07-13T00:54:15;21.90;99.90
23271;DHT22;11804;51.118;17.058;2023-07-13T00:56:45;21.90;99.90
23271;DHT22;11804;51.118;17.058;2023-07-13T00:59:15;21.90;99.90
23271;DHT22;11804;51.118;17.058;2023-07-13T01:01:46;22.00;99.90
23271;DHT22;11804;51.118;17.058;2023-07-13T01:04:14;22.00;99.90
23271;DHT22;11804;51.118;17.058;2023-07-13T01:06:44;22.10;99.90
23271;DHT22;11804;51.118;17.058;2023-07-13T01:09:12;22.20;99.90
23271;DHT22;11804;51.118;17.058;2023-07-13T01:11:41;21.90;99.90
23271;DHT22;11804;51.118;17.058;2023-07-13T01:14:09;21.70;99.90
23271;DHT22;11804;51.118;17.058;2023-07-13T01:16:38;21.50;99.90
23271;DHT22;11804;51.118;17.058;2023-07-13T01:19:11;21.60;99.90
23271;DHT22;11804;51.118;17.058;2023-07-13T01:21:38;21.60;99.90
23271;DHT22;11804;51.118;17.058;2023-07-13T01:24:07;21.60;99.90
23271;DHT22;11804;51.118;17.058;2023-07-13T01:26:35;21.60;99.90
23271;DHT22;11804;51.118;17.058;2023-07-13T01:29:03;21.50;99.90
23271;DHT22;11804;51.118;17.058;2023-07-13T01:31:30;21.50;99.90
23271;DHT22;11804;51.118;17.058;2023-07-13T01:33:58;21.40;99.90
23271;DHT22;11804;51.118;17.058;2023-07-13T01:36:26;21.20;99.90
23271;DHT22;11804;51.118;17.058;2023-07-13T01:38:53;21.20;99.90
23271;DHT22;11804;51.118;17.058;2023-07-13T01:41:21;21.30;99.90
23271;DHT22;11804;51.118;17.058;2023-07-13T01:43:49;21.20;99.90
23271;DHT22;11804;51.118;17.058;2023-07-13T01:46:17;21.00;99.90
23271;DHT22;11804;51.118;17.058;2023-07-13T01:48:44;20.80;99.90
23271;DHT22;11804;51.118;17.058;2023-07-13T01:51:12;20.80;99.90
23271;DHT22;11804;51.118;17.058;2023-07-13T01:53:40;20.90;99.90
23271;DHT22;11804;51.118;17.058;2023-07-13T01:56:08;21.00;99.90
23271;DHT22;11804;51.118;17.058;2023-07-13T01:58:35;21.10;99.90
23271;DHT22;11804;51.118;17.058;2023-07-13T02:01:05;21.00;99.90
23271;DHT22;11804;51.118;17.058;2023-07-13T02:03:32;21.10;99.90
23271;DHT22;11804;51.118;17.058;2023-07-13T02:06:00;21.00;99.90
23271;DHT22;11804;51.118;17.058;2023-07-13T02:08:27;21.10;99.90
23271;DHT22;11804;51.118;17.058;2023-07-13T02:10:55;21.10;99.90
23271;DHT22;11804;51.118;17.058;2023-07-13T02:13:22;21.10;99.90
23271;DHT22;11804;51.118;17.058;2023-07-13T02:15:51;21.10;99.90
23271;DHT22;11804;51.118;17.058;2023-07-13T02:18:20;21.10;99.90
23271;DHT22;11804;51.118;17.058;2023-07-13T02:20:48;21.10;99.90
23271;DHT22;11804;51.118;17.058;2023-07-13T02:23:15;21.10;99.90
23271;DHT22;11804;51.118;17.058;2023-07-13T02:25:46;21.10;99.90
23271;DHT22;11804;51.118;17.058;2023-07-13T02:28:14;21.10;99.90
23271;DHT22;11804;51.118;17.058;2023-07-13T02:30:41;21.10;99.90
23271;DHT22;11804;51.118;17.058;2023-07-13T02:33:09;21.10;99.90
23271;DHT22;11804;51.118;17.058;2023-07-13T02:35:36;21.10;99.90
23271;DHT22;11804;51.118;17.058;2023-07-13T02:38:04;21.00;99.90
23271;DHT22;11804;51.118;17.058;2023-07-13T02:40:32;20.80;99.90
23271;DHT22;11804;51.118;17.058;2023-07-13T02:43:03;20.70;99.90
23271;DHT22;11804;51.118;17.058;2023-07-13T02:45:30;20.50;99.90
23271;DHT22;11804;51.118;17.058;2023-07-13T02:47:58;20.30;99.90
23271;DHT22;11804;51.118;17.058;2023-07-13T02:50:26;20.20;99.90
23271;DHT22;11804;51.118;17.058;2023-07-13T02:52:53;20.20;99.90
23271;DHT22;11804;51.118;17.058;2023-07-13T02:55:21;20.00;99.90
23271;DHT22;11804;51.118;17.058;2023-07-13T02:57:50;20.10;99.90
23271;DHT22;11804;51.118;17.058;2023-07-13T03:00:17;20.10;99.90
23271;DHT22;11804;51.118;17.058;2023-07-13T03:02:45;20.30;99.90
23271;DHT22;11804;51.118;17.058;2023-07-13T03:05:13;20.50;99.90
23271;DHT22;11804;51.118;17.058;2023-07-13T03:07:41;20.70;99.90
23271;DHT22;11804;51.118;17.058;2023-07-13T03:10:10;20.70;99.90
23271;DHT22;11804;51.118;17.058;2023-07-13T03:12:38;20.80;99.90
23271;DHT22;11804;51.118;17.058;2023-07-13T03:15:06;21.10;99.90
23271;DHT22;11804;51.118;17.058;2023-07-13T03:17:33;21.20;99.90
23271;DHT22;11804;51.118;17.058;2023-07-13T03:20:01;21.30;99.90
23271;DHT22;11804;51.118;17.058;2023-07-13T03:22:29;21.50;99.90
23271;DHT22;11804;51.118;17.058;2023-07-13T03:24:58;21.60;99.90
23271;DHT22;11804;51.118;17.058;2023-07-13T03:27:25;21.60;99.90
23271;DHT22;11804;51.118;17.058;2023-07-13T03:29:53;21.80;99.90
23271;DHT22;11804;51.118;17.058;2023-07-13T03:32:21;22.20;99.90
23271;DHT22;11804;51.118;17.058;2023-07-13T03:34:48;22.40;99.90
23271;DHT22;11804;51.118;17.058;2023-07-13T03:37:16;22.50;99.90
23271;DHT22;11804;51.118;17.058;2023-07-13T03:39:43;22.40;99.90
23271;DHT22;11804;51.118;17.058;2023-07-13T03:42:11;22.20;99.90
23271;DHT22;11804;51.118;17.058;2023-07-13T03:44:39;22.10;99.90
23271;DHT22;11804;51.118;17.058;2023-07-13T03:47:07;22.00;99.90
23271;DHT22;11804;51.118;17.058;2023-07-13T03:49:35;21.80;99.90
23271;DHT22;11804;51.118;17.058;2023-07-13T03:52:05;21.70;99.90
23271;DHT22;11804;51.118;17.058;2023-07-13T03:54:33;21.80;99.90
23271;DHT22;11804;51.118;17.058;2023-07-13T03:57:01;21.80;99.90
23271;DHT22;11804;51.118;17.058;2023-07-13T03:59:28;21.80;99.90
23271;DHT22;11804;51.118;17.058;2023-07-13T04:01:58;21.70;99.90
23271;DHT22;11804;51.118;17.058;2023-07-13T04:04:25;21.60;99.90
23271;DHT22;11804;51.118;17.058;2023-07-13T04:06:53;21.50;99.90
23271;DHT22;11804;51.118;17.058;2023-07-13T04:09:20;21.50;99.90
23271;DHT22;11804;51.118;17.058;2023-07-13T04:11:48;21.70;99.90
23271;DHT22;11804;51.118;17.058;2023-07-13T04:14:16;21.70;99.90
23271;DHT22;11804;51.118;17.058;2023-07-13T04:16:43;21.80;99.90
23271;DHT22;11804;51.118;17.058;2023-07-13T04:19:13;21.80;99.90
23271;DHT22;11804;51.118;17.058;2023-07-13T04:21:41;21.90;99.90
23271;DHT22;11804;51.118;17.058;2023-07-13T04:24:09;21.90;99.90
23271;DHT22;11804;51.118;17.058;2023-07-13T04:26:36;21.90;99.90
23271;DHT22;11804;51.118;17.058;2023-07-13T04:29:05;21.80;99.90
23271;DHT22;11804;51.118;17.058;2023-07-13T04:31:33;21.80;99.90
23271;DHT22;11804;51.118;17.058;2023-07-13T04:34:01;21.60;99.90
23271;DHT22;11804;51.118;17.058;2023-07-13T04:36:29;21.40;99.90
23271;DHT22;11804;51.118;17.058;2023-07-13T04:38:57;21.30;99.90
23271;DHT22;11804;51.118;17.058;2023-07-13T04:41:26;21.10;99.90
23271;DHT22;11804;51.118;17.058;2023-07-13T04:43:54;20.90;99.90
23271;DHT22;11804;51.118;17.058;2023-07-13T04:46:22;20.80;99.90
23271;DHT22;11804;51.118;17.058;2023-07-13T04:48:50;20.20;99.90
23271;DHT22;11804;51.118;17.058;2023-07-13T04:51:19;19.80;99.90
23271;DHT22;11804;51.118;17.058;2023-07-13T04:53:47;19.50;99.90
23271;DHT22;11804;51.118;17.058;2023-07-13T04:56:15;19.20;99.90
23271;DHT22;11804;51.118;17.058;2023-07-13T04:58:42;19.20;99.90
23271;DHT22;11804;51.118;17.058;2023-07-13T05:01:10;19.00;99.90
23271;DHT22;11804;51.118;17.058;2023-07-13T05:03:38;18.80;99.90
23271;DHT22;11804;51.118;17.058;2023-07-13T05:06:07;18.80;99.90
23271;DHT22;11804;51.118;17.058;2023-07-13T05:08:37;18.80;99.90
23271;DHT22;11804;51.118;17.058;2023-07-13T05:11:05;18.70;99.90
23271;DHT22;11804;51.118;17.058;2023-07-13T05:13:33;18.70;99.90
23271;DHT22;11804;51.118;17.058;2023-07-13T05:16:05;18.70;99.90
23271;DHT22;11804;51.118;17.058;2023-07-13T05:18:34;18.70;99.90
23271;DHT22;11804;51.118;17.058;2023-07-13T05:21:08;18.60;99.90
23271;DHT22;11804;51.118;17.058;2023-07-13T05:23:36;18.50;99.90
23271;DHT22;11804;51.118;17.058;2023-07-13T05:26:04;18.50;99.90
23271;DHT22;11804;51.118;17.058;2023-07-13T05:28:32;18.50;99.90
23271;DHT22;11804;51.118;17.058;2023-07-13T05:30:59;18.50;99.90
23271;DHT22;11804;51.118;17.058;2023-07-13T05:33:27;18.30;99.90
23271;DHT22;11804;51.118;17.058;2023-07-13T05:35:55;17.70;99.90
23271;DHT22;11804;51.118;17.058;2023-07-13T05:38:23;17.10;99.90
23271;DHT22;11804;51.118;17.058;2023-07-13T05:40:52;16.80;99.90
23271;DHT22;11804;51.118;17.058;2023-07-13T05:43:20;16.80;99.90
23271;DHT22;11804;51.118;17.058;2023-07-13T05:45:48;17.40;99.90
23271;DHT22;11804;51.118;17.058;2023-07-13T05:48:16;17.80;99.90
23271;DHT22;11804;51.118;17.058;2023-07-13T05:50:44;18.20;99.90
23271;DHT22;11804;51.118;17.058;2023-07-13T05:53:12;18.40;99.90
23271;DHT22;11804;51.118;17.058;2023-07-13T05:55:43;18.50;99.90
23271;DHT22;11804;51.118;17.058;2023-07-13T05:58:12;18.40;99.90
23271;DHT22;11804;51.118;17.058;2023-07-13T06:00:40;18.50;99.90
23271;DHT22;11804;51.118;17.058;2023-07-13T06:03:07;17.80;99.90
23271;DHT22;11804;51.118;17.058;2023-07-13T06:05:37;17.60;99.90
23271;DHT22;11804;51.118;17.058;2023-07-13T06:08:06;17.70;99.90
23271;DHT22;11804;51.118;17.058;2023-07-13T06:10:36;18.00;99.90
23271;DHT22;11804;51.118;17.058;2023-07-13T06:13:03;18.30;99.90
23271;DHT22;11804;51.118;17.058;2023-07-13T06:15:31;18.60;99.90
23271;DHT22;11804;51.118;17.058;2023-07-13T06:17:59;18.90;99.90
23271;DHT22;11804;51.118;17.058;2023-07-13T06:20:26;19.20;99.90
23271;DHT22;11804;51.118;17.058;2023-07-13T06:22:55;19.50;99.90
23271;DHT22;11804;51.118;17.058;2023-07-13T06:25:23;19.80;99.90
23271;DHT22;11804;51.118;17.058;2023-07-13T06:27:50;20.50;99.90
23271;DHT22;11804;51.118;17.058;2023-07-13T06:30:18;21.60;99.90
23271;DHT22;11804;51.118;17.058;2023-07-13T06:32:45;22.30;99.90
23271;DHT22;11804;51.118;17.058;2023-07-13T06:35:13;23.20;99.90
23271;DHT22;11804;51.118;17.058;2023-07-13T06:37:40;23.90;99.90
23271;DHT22;11804;51.118;17.058;2023-07-13T06:40:09;23.50;99.90
23271;DHT22;11804;51.118;17.058;2023-07-13T06:42:36;23.00;99.90
23271;DHT22;11804;51.118;17.058;2023-07-13T06:45:06;22.40;99.90
23271;DHT22;11804;51.118;17.058;2023-07-13T06:47:33;22.10;99.90
23271;DHT22;11804;51.118;17.058;2023-07-13T06:50:01;21.70;99.90
23271;DHT22;11804;51.118;17.058;2023-07-13T06:52:29;21.40;99.90
23271;DHT22;11804;51.118;17.058;2023-07-13T06:54:57;21.20;99.90
23271;DHT22;11804;51.118;17.058;2023-07-13T06:57:26;20.90;99.90
23271;DHT22;11804;51.118;17.058;2023-07-13T06:59:54;20.40;99.90
23271;DHT22;11804;51.118;17.058;2023-07-13T07:02:21;20.20;99.90
23271;DHT22;11804;51.118;17.058;2023-07-13T07:04:49;20.00;99.90
23271;DHT22;11804;51.118;17.058;2023-07-13T07:07:16;19.90;99.90
23271;DHT22;11804;51.118;17.058;2023-07-13T07:09:44;19.90;99.90
23271;DHT22;11804;51.118;17.058;2023-07-13T07:12:11;19.80;99.90
23271;DHT22;11804;51.118;17.058;2023-07-13T07:14:39;19.80;99.90
23271;DHT22;11804;51.118;17.058;2023-07-13T07:17:06;19.70;99.90
23271;DHT22;11804;51.118;17.058;2023-07-13T07:19:35;19.60;99.90
23271;DHT22;11804;51.118;17.058;2023-07-13T07:22:04;19.50;99.90
23271;DHT22;11804;51.118;17.058;2023-07-13T07:24:31;19.60;99.90
23271;DHT22;11804;51.118;17.058;2023-07-13T07:26:59;19.60;99.90
23271;DHT22;11804;51.118;17.058;2023-07-13T07:29:26;19.50;99.90
23271;DHT22;11804;51.118;17.058;2023-07-13T07:31:54;19.60;99.90
23271;DHT22;11804;51.118;17.058;2023-07-13T07:34:22;19.60;99.90
23271;DHT22;11804;51.118;17.058;2023-07-13T07:36:51;19.60;99.90
23271;DHT22;11804;51.118;17.058;2023-07-13T07:39:18;19.10;99.90
23271;DHT22;11804;51.118;17.058;2023-07-13T07:41:46;19.00;99.90
23271;DHT22;11804;51.118;17.058;2023-07-13T07:44:14;18.90;99.90
23271;DHT22;11804;51.118;17.058;2023-07-13T07:46:41;18.30;99.90
23271;DHT22;11804;51.118;17.058;2023-07-13T07:49:09;17.90;99.90
23271;DHT22;11804;51.118;17.058;2023-07-13T07:51:37;17.70;99.90
23271;DHT22;11804;51.118;17.058;2023-07-13T07:54:05;17.70;99.90
23271;DHT22;11804;51.118;17.058;2023-07-13T07:56:33;17.80;99.90
23271;DHT22;11804;51.118;17.058;2023-07-13T07:59:04;18.00;99.90
23271;DHT22;11804;51.118;17.058;2023-07-13T08:01:31;18.00;99.90
23271;DHT22;11804;51.118;17.058;2023-07-13T08:03:59;18.20;99.90
23271;DHT22;11804;51.118;17.058;2023-07-13T08:06:26;18.40;99.90
23271;DHT22;11804;51.118;17.058;2023-07-13T08:08:55;18.80;99.90
23271;DHT22;11804;51.118;17.058;2023-07-13T08:11:23;19.40;99.90
23271;DHT22;11804;51.118;17.058;2023-07-13T08:13:50;20.20;99.90
23271;DHT22;11804;51.118;17.058;2023-07-13T08:16:18;21.20;99.90
23271;DHT22;11804;51.118;17.058;2023-07-13T08:18:46;22.00;99.90
23271;DHT22;11804;51.118;17.058;2023-07-13T08:21:13;22.50;99.90
23271;DHT22;11804;51.118;17.058;2023-07-13T08:23:41;22.80;99.90
23271;DHT22;11804;51.118;17.058;2023-07-13T08:26:09;23.00;99.90
23271;DHT22;11804;51.118;17.058;2023-07-13T08:28:37;22.90;99.90
23271;DHT22;11804;51.118;17.058;2023-07-13T08:31:06;22.90;99.90
23271;DHT22;11804;51.118;17.058;2023-07-13T08:33:35;22.90;99.90
23271;DHT22;11804;51.118;17.058;2023-07-13T08:36:04;22.80;99.90
23271;DHT22;11804;51.118;17.058;2023-07-13T08:38:32;22.60;99.90
23271;DHT22;11804;51.118;17.058;2023-07-13T08:41:00;22.50;99.90
23271;DHT22;11804;51.118;17.058;2023-07-13T08:43:36;22.50;99.90
23271;DHT22;11804;51.118;17.058;2023-07-13T08:48:39;22.50;99.90
23271;DHT22;11804;51.118;17.058;2023-07-13T08:53:52;22.40;99.90
23271;DHT22;11804;51.118;17.058;2023-07-13T08:56:24;22.40;99.90
23271;DHT22;11804;51.118;17.058;2023-07-13T08:58:55;22.10;99.90
23271;DHT22;11804;51.118;17.058;2023-07-13T09:01:42;22.10;99.90
23271;DHT22;11804;51.118;17.058;2023-07-13T09:06:47;22.40;99.90
23271;DHT22;11804;51.118;17.058;2023-07-13T09:14:55;24.60;99.90
23271;DHT22;11804;51.118;17.058;2023-07-13T09:17:33;25.30;99.90
23271;DHT22;11804;51.118;17.058;2023-07-13T09:20:03;25.40;98.00
23271;DHT22;11804;51.118;17.058;2023-07-13T09:22:33;25.40;98.50
23271;DHT22;11804;51.118;17.058;2023-07-13T09:27:40;26.00;96.30
23271;DHT22;11804;51.118;17.058;2023-07-13T09:32:47;25.50;96.60
23271;DHT22;11804;51.118;17.058;2023-07-13T09:35:24;25.40;97.90
23271;DHT22;11804;51.118;17.058;2023-07-13T09:37:48;25.30;95.50
23271;DHT22;11804;51.118;17.058;2023-07-13T09:40:28;25.20;96.20
23271;DHT22;11804;51.118;17.058;2023-07-13T09:42:56;25.80;96.10
23271;DHT22;11804;51.118;17.058;2023-07-13T09:45:30;26.10;91.00
23271;DHT22;11804;51.118;17.058;2023-07-13T09:48:11;26.40;87.60
23271;DHT22;11804;51.118;17.058;2023-07-13T09:50:42;26.40;89.50
23271;DHT22;11804;51.118;17.058;2023-07-13T09:53:18;26.50;89.50
23271;DHT22;11804;51.118;17.058;2023-07-13T09:55:47;27.00;84.00
23271;DHT22;11804;51.118;17.058;2023-07-13T09:58:21;27.00;80.00
23271;DHT22;11804;51.118;17.058;2023-07-13T10:01:01;27.50;74.00
23271;DHT22;11804;51.118;17.058;2023-07-13T10:03:32;27.40;73.40
23271;DHT22;11804;51.118;17.058;2023-07-13T10:06:19;28.50;66.50
23271;DHT22;11804;51.118;17.058;2023-07-13T10:08:50;28.70;68.30
23271;DHT22;11804;51.118;17.058;2023-07-13T10:11:20;29.20;62.30
23271;DHT22;11804;51.118;17.058;2023-07-13T10:14:11;30.30;55.30
23271;DHT22;11804;51.118;17.058;2023-07-13T10:16:41;29.30;56.40
23271;DHT22;11804;51.118;17.058;2023-07-13T10:19:24;28.50;57.60
23271;DHT22;11804;51.118;17.058;2023-07-13T10:22:12;28.70;57.80
23271;DHT22;11804;51.118;17.058;2023-07-13T10:24:40;29.10;56.90
23271;DHT22;11804;51.118;17.058;2023-07-13T10:27:33;28.50;57.00
23271;DHT22;11804;51.118;17.058;2023-07-13T10:30:09;28.10;59.10
23271;DHT22;11804;51.118;17.058;2023-07-13T10:32:30;28.20;58.90
23271;DHT22;11804;51.118;17.058;2023-07-13T10:35:00;28.10;60.40
23271;DHT22;11804;51.118;17.058;2023-07-13T10:37:40;28.00;60.00
23271;DHT22;11804;51.118;17.058;2023-07-13T10:40:11;27.60;58.80
23271;DHT22;11804;51.118;17.058;2023-07-13T10:42:39;27.60;60.50
23271;DHT22;11804;51.118;17.058;2023-07-13T10:45:20;27.30;60.80
23271;DHT22;11804;51.118;17.058;2023-07-13T10:47:45;27.30;61.40
23271;DHT22;11804;51.118;17.058;2023-07-13T10:50:22;27.30;58.30
23271;DHT22;11804;51.118;17.058;2023-07-13T10:52:51;27.30;59.00
23271;DHT22;11804;51.118;17.058;2023-07-13T10:58:12;27.80;58.80
23271;DHT22;11804;51.118;17.058;2023-07-13T11:00:56;28.30;58.30
23271;DHT22;11804;51.118;17.058;2023-07-13T11:03:23;28.30;55.60
23271;DHT22;11804;51.118;17.058;2023-07-13T11:06:10;28.20;57.40
23271;DHT22;11804;51.118;17.058;2023-07-13T11:14:00;27.20;60.00
23271;DHT22;11804;51.118;17.058;2023-07-13T11:16:44;26.70;61.70
23271;DHT22;11804;51.118;17.058;2023-07-13T11:25:02;26.90;60.90
23271;DHT22;11804;51.118;17.058;2023-07-13T11:27:38;27.00;60.20
23271;DHT22;11804;51.118;17.058;2023-07-13T11:33:25;26.60;59.70
23271;DHT22;11804;51.118;17.058;2023-07-13T11:38:38;26.50;61.10
23271;DHT22;11804;51.118;17.058;2023-07-13T11:43:40;26.90;62.20
23271;DHT22;11804;51.118;17.058;2023-07-13T11:46:24;26.80;61.60
23271;DHT22;11804;51.118;17.058;2023-07-13T11:48:52;26.60;62.30
23271;DHT22;11804;51.118;17.058;2023-07-13T11:53:55;26.80;62.80
23271;DHT22;11804;51.118;17.058;2023-07-13T11:56:25;26.80;62.30
23271;DHT22;11804;51.118;17.058;2023-07-13T11:58:54;26.80;60.90
23271;DHT22;11804;51.118;17.058;2023-07-13T12:01:27;26.60;61.90
23271;DHT22;11804;51.118;17.058;2023-07-13T12:04:03;26.50;62.00
23271;DHT22;11804;51.118;17.058;2023-07-13T12:06:34;26.70;63.00
23271;DHT22;11804;51.118;17.058;2023-07-13T12:09:14;26.80;62.30
23271;DHT22;11804;51.118;17.058;2023-07-13T12:11:46;26.90;62.00
23271;DHT22;11804;51.118;17.058;2023-07-13T12:14:18;26.80;62.40
23271;DHT22;11804;51.118;17.058;2023-07-13T12:16:46;26.50;62.20
23271;DHT22;11804;51.118;17.058;2023-07-13T12:19:21;26.70;63.30
23271;DHT22;11804;51.118;17.058;2023-07-13T12:21:50;26.80;62.60
23271;DHT22;11804;51.118;17.058;2023-07-13T12:24:20;26.80;61.40
23271;DHT22;11804;51.118;17.058;2023-07-13T12:27:03;26.70;61.00
23271;DHT22;11804;51.118;17.058;2023-07-13T12:29:33;27.00;59.90
23271;DHT22;11804;51.118;17.058;2023-07-13T12:32:00;27.00;58.80
23271;DHT22;11804;51.118;17.058;2023-07-13T12:34:28;27.10;56.00
23271;DHT22;11804;51.118;17.058;2023-07-13T12:37:01;27.20;54.20
23271;DHT22;11804;51.118;17.058;2023-07-13T12:39:38;27.20;51.80
23271;DHT22;11804;51.118;17.058;2023-07-13T12:44:49;27.00;52.40
23271;DHT22;11804;51.118;17.058;2023-07-13T12:47:19;26.90;53.10
23271;DHT22;11804;51.118;17.058;2023-07-13T12:49:50;26.80;53.80
23271;DHT22;11804;51.118;17.058;2023-07-13T12:52:22;26.80;54.10
23271;DHT22;11804;51.118;17.058;2023-07-13T12:54:57;26.80;54.00
23271;DHT22;11804;51.118;17.058;2023-07-13T12:57:27;27.00;54.20
23271;DHT22;11804;51.118;17.058;2023-07-13T12:59:55;27.20;52.70
23271;DHT22;11804;51.118;17.058;2023-07-13T13:02:29;27.20;51.90
23271;DHT22;11804;51.118;17.058;2023-07-13T13:04:57;27.00;50.80
23271;DHT22;11804;51.118;17.058;2023-07-13T13:07:26;26.90;51.30
23271;DHT22;11804;51.118;17.058;2023-07-13T13:09:53;26.90;51.50
23271;DHT22;11804;51.118;17.058;2023-07-13T13:12:21;26.70;52.50
23271;DHT22;11804;51.118;17.058;2023-07-13T13:14:51;26.60;52.90
23271;DHT22;11804;51.118;17.058;2023-07-13T13:17:22;26.50;52.10
23271;DHT22;11804;51.118;17.058;2023-07-13T13:19:53;26.50;52.70
23271;DHT22;11804;51.118;17.058;2023-07-13T13:22:22;26.40;53.30
23271;DHT22;11804;51.118;17.058;2023-07-13T13:24:50;26.20;53.40
23271;DHT22;11804;51.118;17.058;2023-07-13T13:27:19;26.10;52.40
23271;DHT22;11804;51.118;17.058;2023-07-13T13:29:50;26.20;52.50
23271;DHT22;11804;51.118;17.058;2023-07-13T13:32:19;26.20;52.00
23271;DHT22;11804;51.118;17.058;2023-07-13T13:34:47;26.30;51.30
23271;DHT22;11804;51.118;17.058;2023-07-13T13:37:23;26.30;52.20
23271;DHT22;11804;51.118;17.058;2023-07-13T13:39:48;26.20;51.60
23271;DHT22;11804;51.118;17.058;2023-07-13T13:42:16;26.20;51.30
23271;DHT22;11804;51.118;17.058;2023-07-13T13:44:43;26.40;51.30
23271;DHT22;11804;51.118;17.058;2023-07-13T13:47:21;26.50;51.00
23271;DHT22;11804;51.118;17.058;2023-07-13T13:49:47;26.30;50.40
23271;DHT22;11804;51.118;17.058;2023-07-13T13:52:15;26.20;49.90
23271;DHT22;11804;51.118;17.058;2023-07-13T13:54:42;26.10;49.60
23271;DHT22;11804;51.118;17.058;2023-07-13T13:57:11;26.10;49.00
23271;DHT22;11804;51.118;17.058;2023-07-13T13:59:39;26.20;47.90
23271;DHT22;11804;51.118;17.058;2023-07-13T14:02:22;26.00;49.30
23271;DHT22;11804;51.118;17.058;2023-07-13T14:04:53;26.20;49.30
23271;DHT22;11804;51.118;17.058;2023-07-13T14:07:19;26.30;48.00
23271;DHT22;11804;51.118;17.058;2023-07-13T14:09:47;26.30;47.00
23271;DHT22;11804;51.118;17.058;2023-07-13T14:12:15;26.30;46.60
23271;DHT22;11804;51.118;17.058;2023-07-13T14:14:42;26.30;46.70
23271;DHT22;11804;51.118;17.058;2023-07-13T14:17:22;26.50;45.90
23271;DHT22;11804;51.118;17.058;2023-07-13T14:19:51;26.60;45.10
23271;DHT22;11804;51.118;17.058;2023-07-13T14:22:20;26.60;45.30
23271;DHT22;11804;51.118;17.058;2023-07-13T14:24:48;26.30;44.00
23271;DHT22;11804;51.118;17.058;2023-07-13T14:27:16;26.20;42.80
23271;DHT22;11804;51.118;17.058;2023-07-13T14:29:43;26.10;43.20
23271;DHT22;11804;51.118;17.058;2023-07-13T14:32:12;26.20;44.70
23271;DHT22;11804;51.118;17.058;2023-07-13T14:34:39;26.20;45.30
23271;DHT22;11804;51.118;17.058;2023-07-13T14:37:12;26.40;43.70
23271;DHT22;11804;51.118;17.058;2023-07-13T14:39:43;26.50;42.50
23271;DHT22;11804;51.118;17.058;2023-07-13T14:42:12;26.40;42.00
23271;DHT22;11804;51.118;17.058;2023-07-13T14:44:42;26.50;40.90
23271;DHT22;11804;51.118;17.058;2023-07-13T14:47:09;26.60;41.20
23271;DHT22;11804;51.118;17.058;2023-07-13T14:49:40;26.60;42.30
23271;DHT22;11804;51.118;17.058;2023-07-13T14:52:20;26.70;42.50
23271;DHT22;11804;51.118;17.058;2023-07-13T14:54:49;27.00;42.00
23271;DHT22;11804;51.118;17.058;2023-07-13T14:57:19;27.20;41.00
23271;DHT22;11804;51.118;17.058;2023-07-13T14:59:48;27.20;41.40
23271;DHT22;11804;51.118;17.058;2023-07-13T15:04:49;27.30;40.90
23271;DHT22;11804;51.118;17.058;2023-07-13T15:07:16;27.30;41.90
23271;DHT22;11804;51.118;17.058;2023-07-13T15:09:45;27.20;40.90
23271;DHT22;11804;51.118;17.058;2023-07-13T15:12:14;27.10;41.70
23271;DHT22;11804;51.118;17.058;2023-07-13T15:14:41;27.10;41.90
23271;DHT22;11804;51.118;17.058;2023-07-13T15:17:37;27.00;42.30
23271;DHT22;11804;51.118;17.058;2023-07-13T15:22:45;27.20;42.80
23271;DHT22;11804;51.118;17.058;2023-07-13T15:25:17;27.10;42.80
23271;DHT22;11804;51.118;17.058;2023-07-13T15:27:46;27.00;42.90
23271;DHT22;11804;51.118;17.058;2023-07-13T15:30:14;26.90;42.60
23271;DHT22;11804;51.118;17.058;2023-07-13T15:32:43;26.80;42.90
23271;DHT22;11804;51.118;17.058;2023-07-13T15:35:18;26.80;43.10
23271;DHT22;11804;51.118;17.058;2023-07-13T15:37:47;26.60;43.80
23271;DHT22;11804;51.118;17.058;2023-07-13T15:40:15;26.50;44.50
23271;DHT22;11804;51.118;17.058;2023-07-13T15:42:44;26.50;44.50
23271;DHT22;11804;51.118;17.058;2023-07-13T15:45:22;26.50;44.60
23271;DHT22;11804;51.118;17.058;2023-07-13T15:47:51;26.50;45.70
23271;DHT22;11804;51.118;17.058;2023-07-13T15:50:22;26.40;48.00
23271;DHT22;11804;51.118;17.058;2023-07-13T15:52:52;26.20;49.30
23271;DHT22;11804;51.118;17.058;2023-07-13T15:55:21;26.20;48.80
23271;DHT22;11804;51.118;17.058;2023-07-13T15:57:51;26.20;49.20
23271;DHT22;11804;51.118;17.058;2023-07-13T16:00:26;26.30;49.80
23271;DHT22;11804;51.118;17.058;2023-07-13T16:02:54;26.20;50.80
23271;DHT22;11804;51.118;17.058;2023-07-13T16:05:23;26.00;51.60
23271;DHT22;11804;51.118;17.058;2023-07-13T16:07:52;26.10;51.80
23271;DHT22;11804;51.118;17.058;2023-07-13T16:10:25;26.20;51.90
23271;DHT22;11804;51.118;17.058;2023-07-13T16:12:52;26.10;52.50
23271;DHT22;11804;51.118;17.058;2023-07-13T16:15:22;26.10;53.00
23271;DHT22;11804;51.118;17.058;2023-07-13T16:17:50;26.00;52.50
23271;DHT22;11804;51.118;17.058;2023-07-13T16:20:18;25.80;52.80
23271;DHT22;11804;51.118;17.058;2023-07-13T16:22:50;25.70;53.00
23271;DHT22;11804;51.118;17.058;2023-07-13T16:25:21;25.80;53.00